Alabama A and M, Alabama
Current Conditions -  °F | °C
As of 2:55 PM on Friday 31 Oct 2014 (Local Time) from KMDQ Reporting Station
Broken Clouds Broken Clouds  
Wind Chill: 11°   Ceiling: 2500
Heat Index: 11°   Visibility: 10mi
Dew Point:   Wind: 9mph
Humidity: 71%   Direction: 340°NNW
Pressure: 29.98"   Gusts: NA
Location:  34.7869°N, 86.5719°W
Report Text: KMDQ 311955Z AUTO 34008KT 10SM SCT020 BKN025 BKN035 11/06 A2998 RMK AO2
Loading
Personal Weather Stations






























Interactive Weather Map
Tropical Storm Tracking
New forecast layout! Learn more

10-Day Weather Forecast

Advertisements
Track Severe Weather on mobile